sensor_id;sensor_type;location;lat;lon;timestamp;P1;durP1;ratioP1;P2;durP2;ratioP2
33954;SDS011;20233;50.804;7.126;2023-04-08T00:00:31;30.02;;;15.23;;
33954;SDS011;20233;50.804;7.126;2023-04-08T00:02:57;32.90;;;17.33;;
33954;SDS011;20233;50.804;7.126;2023-04-08T00:05:22;33.38;;;15.63;;
33954;SDS011;20233;50.804;7.126;2023-04-08T00:07:48;39.35;;;18.52;;
33954;SDS011;20233;50.804;7.126;2023-04-08T00:10:14;39.22;;;16.98;;
33954;SDS011;20233;50.804;7.126;2023-04-08T00:12:40;34.13;;;16.40;;
33954;SDS011;20233;50.804;7.126;2023-04-08T00:15:05;29.88;;;16.90;;
33954;SDS011;20233;50.804;7.126;2023-04-08T00:17:31;42.53;;;18.02;;
33954;SDS011;20233;50.804;7.126;2023-04-08T00:19:57;37.75;;;18.75;;
33954;SDS011;20233;50.804;7.126;2023-04-08T00:22:22;48.38;;;19.45;;
33954;SDS011;20233;50.804;7.126;2023-04-08T00:24:48;35.90;;;17.45;;
33954;SDS011;20233;50.804;7.126;2023-04-08T00:27:13;39.97;;;18.23;;
33954;SDS011;20233;50.804;7.126;2023-04-08T00:29:39;35.95;;;17.55;;
33954;SDS011;20233;50.804;7.126;2023-04-08T00:32:05;39.90;;;18.30;;
33954;SDS011;20233;50.804;7.126;2023-04-08T00:34:31;34.33;;;16.65;;
33954;SDS011;20233;50.804;7.126;2023-04-08T00:36:57;36.35;;;18.60;;
33954;SDS011;20233;50.804;7.126;2023-04-08T00:39:23;36.75;;;18.27;;
33954;SDS011;20233;50.804;7.126;2023-04-08T00:41:49;39.42;;;17.67;;
33954;SDS011;20233;50.804;7.126;2023-04-08T00:44:14;39.58;;;17.58;;
33954;SDS011;20233;50.804;7.126;2023-04-08T00:46:40;41.28;;;18.33;;
33954;SDS011;20233;50.804;7.126;2023-04-08T00:49:06;35.88;;;18.77;;
33954;SDS011;20233;50.804;7.126;2023-04-08T00:51:32;34.72;;;17.85;;
33954;SDS011;20233;50.804;7.126;2023-04-08T00:54:00;32.63;;;17.63;;
33954;SDS011;20233;50.804;7.126;2023-04-08T00:56:26;36.17;;;18.40;;
33954;SDS011;20233;50.804;7.126;2023-04-08T00:58:52;40.80;;;19.08;;
33954;SDS011;20233;50.804;7.126;2023-04-08T01:04:16;33.78;;;17.52;;
33954;SDS011;20233;50.804;7.126;2023-04-08T01:07:08;41.08;;;18.52;;
33954;SDS011;20233;50.804;7.126;2023-04-08T01:09:43;38.40;;;18.35;;
33954;SDS011;20233;50.804;7.126;2023-04-08T01:12:12;34.45;;;18.42;;
33954;SDS011;20233;50.804;7.126;2023-04-08T01:14:44;32.50;;;17.45;;
33954;SDS011;20233;50.804;7.126;2023-04-08T01:17:12;37.75;;;18.27;;
33954;SDS011;20233;50.804;7.126;2023-04-08T01:19:42;42.65;;;20.20;;
33954;SDS011;20233;50.804;7.126;2023-04-08T01:24:50;37.17;;;18.35;;
33954;SDS011;20233;50.804;7.126;2023-04-08T01:27:26;39.65;;;18.60;;
33954;SDS011;20233;50.804;7.126;2023-04-08T01:29:55;35.28;;;16.98;;
33954;SDS011;20233;50.804;7.126;2023-04-08T01:32:22;40.88;;;18.15;;
33954;SDS011;20233;50.804;7.126;2023-04-08T01:34:48;35.00;;;17.23;;
33954;SDS011;20233;50.804;7.126;2023-04-08T01:37:15;36.80;;;18.35;;
33954;SDS011;20233;50.804;7.126;2023-04-08T01:39:41;40.63;;;17.90;;
33954;SDS011;20233;50.804;7.126;2023-04-08T01:42:08;33.05;;;18.77;;
33954;SDS011;20233;50.804;7.126;2023-04-08T01:44:35;37.95;;;17.88;;
33954;SDS011;20233;50.804;7.126;2023-04-08T01:47:02;39.00;;;17.70;;
33954;SDS011;20233;50.804;7.126;2023-04-08T01:49:28;37.10;;;17.80;;
33954;SDS011;20233;50.804;7.126;2023-04-08T01:51:54;38.35;;;19.00;;
33954;SDS011;20233;50.804;7.126;2023-04-08T01:54:22;40.78;;;18.40;;
33954;SDS011;20233;50.804;7.126;2023-04-08T01:56:48;35.50;;;18.92;;
33954;SDS011;20233;50.804;7.126;2023-04-08T01:59:15;34.22;;;18.48;;
33954;SDS011;20233;50.804;7.126;2023-04-08T02:01:44;43.90;;;18.95;;
33954;SDS011;20233;50.804;7.126;2023-04-08T02:04:12;40.20;;;18.08;;
33954;SDS011;20233;50.804;7.126;2023-04-08T02:06:37;42.83;;;18.80;;
33954;SDS011;20233;50.804;7.126;2023-04-08T02:09:03;42.90;;;18.08;;
33954;SDS011;20233;50.804;7.126;2023-04-08T02:11:29;41.63;;;19.42;;
33954;SDS011;20233;50.804;7.126;2023-04-08T02:13:55;48.78;;;19.58;;
33954;SDS011;20233;50.804;7.126;2023-04-08T02:19:17;36.22;;;19.42;;
33954;SDS011;20233;50.804;7.126;2023-04-08T02:21:51;38.38;;;19.17;;
33954;SDS011;20233;50.804;7.126;2023-04-08T02:24:23;42.17;;;19.63;;
33954;SDS011;20233;50.804;7.126;2023-04-08T02:26:51;44.85;;;19.98;;
33954;SDS011;20233;50.804;7.126;2023-04-08T02:29:18;53.10;;;21.08;;
33954;SDS011;20233;50.804;7.126;2023-04-08T02:31:44;41.38;;;20.10;;
33954;SDS011;20233;50.804;7.126;2023-04-08T02:34:10;40.45;;;19.95;;
33954;SDS011;20233;50.804;7.126;2023-04-08T02:36:38;46.75;;;18.98;;
33954;SDS011;20233;50.804;7.126;2023-04-08T02:39:05;44.13;;;20.02;;
33954;SDS011;20233;50.804;7.126;2023-04-08T02:41:31;42.70;;;19.88;;
33954;SDS011;20233;50.804;7.126;2023-04-08T02:43:57;44.25;;;19.67;;
33954;SDS011;20233;50.804;7.126;2023-04-08T02:46:22;50.60;;;19.52;;
33954;SDS011;20233;50.804;7.126;2023-04-08T02:48:48;40.85;;;19.90;;
33954;SDS011;20233;50.804;7.126;2023-04-08T02:51:14;42.35;;;19.70;;
33954;SDS011;20233;50.804;7.126;2023-04-08T02:53:40;34.15;;;18.63;;
33954;SDS011;20233;50.804;7.126;2023-04-08T02:56:09;39.17;;;18.05;;
33954;SDS011;20233;50.804;7.126;2023-04-08T02:58:35;40.20;;;20.60;;
33954;SDS011;20233;50.804;7.126;2023-04-08T03:01:00;39.40;;;19.65;;
33954;SDS011;20233;50.804;7.126;2023-04-08T03:03:26;43.85;;;20.50;;
33954;SDS011;20233;50.804;7.126;2023-04-08T03:05:53;49.05;;;19.50;;
33954;SDS011;20233;50.804;7.126;2023-04-08T03:08:20;44.92;;;20.33;;
33954;SDS011;20233;50.804;7.126;2023-04-08T03:10:46;45.25;;;20.35;;
33954;SDS011;20233;50.804;7.126;2023-04-08T03:13:13;41.95;;;21.08;;
33954;SDS011;20233;50.804;7.126;2023-04-08T03:15:38;48.58;;;20.83;;
33954;SDS011;20233;50.804;7.126;2023-04-08T03:18:04;42.65;;;20.17;;
33954;SDS011;20233;50.804;7.126;2023-04-08T03:20:30;48.85;;;21.52;;
33954;SDS011;20233;50.804;7.126;2023-04-08T03:22:56;39.78;;;20.45;;
33954;SDS011;20233;50.804;7.126;2023-04-08T03:25:21;44.58;;;20.95;;
33954;SDS011;20233;50.804;7.126;2023-04-08T03:27:47;44.60;;;20.25;;
33954;SDS011;20233;50.804;7.126;2023-04-08T03:30:12;46.58;;;20.80;;
33954;SDS011;20233;50.804;7.126;2023-04-08T03:32:38;42.00;;;20.08;;
33954;SDS011;20233;50.804;7.126;2023-04-08T03:35:04;44.47;;;20.13;;
33954;SDS011;20233;50.804;7.126;2023-04-08T03:37:30;49.40;;;21.75;;
33954;SDS011;20233;50.804;7.126;2023-04-08T03:39:56;43.50;;;20.80;;
33954;SDS011;20233;50.804;7.126;2023-04-08T03:42:22;40.83;;;21.05;;
33954;SDS011;20233;50.804;7.126;2023-04-08T03:44:47;52.10;;;21.70;;
33954;SDS011;20233;50.804;7.126;2023-04-08T03:47:13;50.85;;;22.85;;
33954;SDS011;20233;50.804;7.126;2023-04-08T03:49:38;49.15;;;20.75;;
33954;SDS011;20233;50.804;7.126;2023-04-08T03:52:04;49.55;;;21.58;;
33954;SDS011;20233;50.804;7.126;2023-04-08T03:54:30;48.38;;;22.83;;
33954;SDS011;20233;50.804;7.126;2023-04-08T03:56:55;49.63;;;21.02;;
33954;SDS011;20233;50.804;7.126;2023-04-08T03:59:21;47.58;;;21.10;;
33954;SDS011;20233;50.804;7.126;2023-04-08T04:01:47;51.30;;;21.45;;
33954;SDS011;20233;50.804;7.126;2023-04-08T04:04:12;52.63;;;22.10;;
33954;SDS011;20233;50.804;7.126;2023-04-08T04:06:38;46.70;;;21.55;;
33954;SDS011;20233;50.804;7.126;2023-04-08T04:09:04;50.10;;;22.77;;
33954;SDS011;20233;50.804;7.126;2023-04-08T04:11:29;46.85;;;22.10;;
33954;SDS011;20233;50.804;7.126;2023-04-08T04:13:55;51.92;;;23.52;;
33954;SDS011;20233;50.804;7.126;2023-04-08T04:16:20;45.88;;;21.67;;
33954;SDS011;20233;50.804;7.126;2023-04-08T04:18:46;43.40;;;20.73;;
33954;SDS011;20233;50.804;7.126;2023-04-08T04:21:12;48.55;;;20.98;;
33954;SDS011;20233;50.804;7.126;2023-04-08T04:23:37;44.85;;;21.70;;
33954;SDS011;20233;50.804;7.126;2023-04-08T04:26:09;49.03;;;22.13;;
33954;SDS011;20233;50.804;7.126;2023-04-08T04:28:35;44.70;;;22.67;;
33954;SDS011;20233;50.804;7.126;2023-04-08T04:31:01;48.60;;;23.65;;
33954;SDS011;20233;50.804;7.126;2023-04-08T04:33:26;51.95;;;22.65;;
33954;SDS011;20233;50.804;7.126;2023-04-08T04:35:52;51.63;;;22.85;;
33954;SDS011;20233;50.804;7.126;2023-04-08T04:38:17;45.92;;;23.30;;
33954;SDS011;20233;50.804;7.126;2023-04-08T04:40:43;48.80;;;23.55;;
33954;SDS011;20233;50.804;7.126;2023-04-08T04:43:09;49.63;;;23.55;;
33954;SDS011;20233;50.804;7.126;2023-04-08T04:45:35;47.33;;;23.13;;
33954;SDS011;20233;50.804;7.126;2023-04-08T04:48:00;51.75;;;23.73;;
33954;SDS011;20233;50.804;7.126;2023-04-08T04:50:27;53.15;;;25.25;;
33954;SDS011;20233;50.804;7.126;2023-04-08T04:52:53;60.25;;;24.75;;
33954;SDS011;20233;50.804;7.126;2023-04-08T04:55:18;51.90;;;23.77;;
33954;SDS011;20233;50.804;7.126;2023-04-08T04:57:44;55.67;;;23.75;;
33954;SDS011;20233;50.804;7.126;2023-04-08T05:00:10;54.88;;;25.27;;
33954;SDS011;20233;50.804;7.126;2023-04-08T05:02:36;52.03;;;24.75;;
33954;SDS011;20233;50.804;7.126;2023-04-08T05:05:01;57.65;;;24.30;;
33954;SDS011;20233;50.804;7.126;2023-04-08T05:07:27;61.05;;;27.42;;
33954;SDS011;20233;50.804;7.126;2023-04-08T05:09:53;55.42;;;24.95;;
33954;SDS011;20233;50.804;7.126;2023-04-08T05:12:18;53.40;;;25.40;;
33954;SDS011;20233;50.804;7.126;2023-04-08T05:14:46;56.20;;;24.95;;
33954;SDS011;20233;50.804;7.126;2023-04-08T05:17:12;53.80;;;25.33;;
33954;SDS011;20233;50.804;7.126;2023-04-08T05:19:38;59.88;;;27.65;;
33954;SDS011;20233;50.804;7.126;2023-04-08T05:22:03;73.63;;;28.65;;
33954;SDS011;20233;50.804;7.126;2023-04-08T05:24:29;61.72;;;27.92;;
33954;SDS011;20233;50.804;7.126;2023-04-08T05:26:54;64.15;;;27.95;;
33954;SDS011;20233;50.804;7.126;2023-04-08T05:29:21;64.18;;;26.75;;
33954;SDS011;20233;50.804;7.126;2023-04-08T05:31:47;60.88;;;26.25;;
33954;SDS011;20233;50.804;7.126;2023-04-08T05:34:13;64.22;;;27.60;;
33954;SDS011;20233;50.804;7.126;2023-04-08T05:36:39;60.72;;;27.27;;
33954;SDS011;20233;50.804;7.126;2023-04-08T05:39:05;64.45;;;27.17;;
33954;SDS011;20233;50.804;7.126;2023-04-08T05:41:30;58.78;;;27.15;;
33954;SDS011;20233;50.804;7.126;2023-04-08T05:43:56;62.33;;;26.58;;
33954;SDS011;20233;50.804;7.126;2023-04-08T05:46:21;63.05;;;26.63;;
33954;SDS011;20233;50.804;7.126;2023-04-08T05:48:47;57.90;;;24.63;;
33954;SDS011;20233;50.804;7.126;2023-04-08T05:51:13;54.67;;;28.05;;
33954;SDS011;20233;50.804;7.126;2023-04-08T05:53:39;59.92;;;27.17;;
33954;SDS011;20233;50.804;7.126;2023-04-08T05:56:05;64.82;;;27.70;;
33954;SDS011;20233;50.804;7.126;2023-04-08T05:58:30;64.65;;;27.88;;
33954;SDS011;20233;50.804;7.126;2023-04-08T06:00:56;62.72;;;27.08;;
33954;SDS011;20233;50.804;7.126;2023-04-08T06:03:21;58.83;;;26.25;;
33954;SDS011;20233;50.804;7.126;2023-04-08T06:05:47;61.25;;;26.45;;
33954;SDS011;20233;50.804;7.126;2023-04-08T06:08:12;66.68;;;28.17;;
33954;SDS011;20233;50.804;7.126;2023-04-08T06:10:38;56.70;;;25.77;;
33954;SDS011;20233;50.804;7.126;2023-04-08T06:13:03;64.32;;;27.27;;
33954;SDS011;20233;50.804;7.126;2023-04-08T06:15:29;63.13;;;29.35;;
33954;SDS011;20233;50.804;7.126;2023-04-08T06:17:56;60.03;;;26.55;;
33954;SDS011;20233;50.804;7.126;2023-04-08T06:20:22;61.78;;;27.23;;
33954;SDS011;20233;50.804;7.126;2023-04-08T06:22:47;62.42;;;26.77;;
33954;SDS011;20233;50.804;7.126;2023-04-08T06:25:13;55.42;;;26.95;;
33954;SDS011;20233;50.804;7.126;2023-04-08T06:27:38;55.13;;;25.83;;
33954;SDS011;20233;50.804;7.126;2023-04-08T06:30:04;51.25;;;24.60;;
33954;SDS011;20233;50.804;7.126;2023-04-08T06:32:30;61.15;;;26.48;;
33954;SDS011;20233;50.804;7.126;2023-04-08T06:34:56;56.25;;;26.42;;
33954;SDS011;20233;50.804;7.126;2023-04-08T06:37:21;51.70;;;24.45;;
33954;SDS011;20233;50.804;7.126;2023-04-08T06:39:48;54.35;;;25.33;;
33954;SDS011;20233;50.804;7.126;2023-04-08T06:42:13;51.47;;;25.85;;
33954;SDS011;20233;50.804;7.126;2023-04-08T06:44:39;57.88;;;25.38;;
33954;SDS011;20233;50.804;7.126;2023-04-08T06:47:05;49.53;;;24.15;;
33954;SDS011;20233;50.804;7.126;2023-04-08T06:49:30;49.08;;;24.48;;
33954;SDS011;20233;50.804;7.126;2023-04-08T06:51:56;57.13;;;25.73;;
33954;SDS011;20233;50.804;7.126;2023-04-08T06:54:22;58.97;;;25.67;;
33954;SDS011;20233;50.804;7.126;2023-04-08T06:56:47;57.30;;;25.98;;
33954;SDS011;20233;50.804;7.126;2023-04-08T06:59:13;51.55;;;24.48;;
33954;SDS011;20233;50.804;7.126;2023-04-08T07:01:38;51.53;;;23.50;;
33954;SDS011;20233;50.804;7.126;2023-04-08T07:04:05;58.05;;;26.30;;
33954;SDS011;20233;50.804;7.126;2023-04-08T07:06:31;56.97;;;26.38;;
33954;SDS011;20233;50.804;7.126;2023-04-08T07:08:56;59.10;;;25.60;;
33954;SDS011;20233;50.804;7.126;2023-04-08T07:11:23;54.13;;;23.23;;
33954;SDS011;20233;50.804;7.126;2023-04-08T07:13:48;53.85;;;24.75;;
33954;SDS011;20233;50.804;7.126;2023-04-08T07:16:14;51.80;;;24.38;;
33954;SDS011;20233;50.804;7.126;2023-04-08T07:18:40;54.85;;;24.02;;
33954;SDS011;20233;50.804;7.126;2023-04-08T07:21:07;56.88;;;25.83;;
33954;SDS011;20233;50.804;7.126;2023-04-08T07:23:33;51.42;;;24.58;;
33954;SDS011;20233;50.804;7.126;2023-04-08T07:26:02;55.22;;;25.02;;
33954;SDS011;20233;50.804;7.126;2023-04-08T07:28:31;56.50;;;24.67;;
33954;SDS011;20233;50.804;7.126;2023-04-08T07:31:00;53.63;;;24.98;;
33954;SDS011;20233;50.804;7.126;2023-04-08T07:33:33;55.10;;;24.35;;
33954;SDS011;20233;50.804;7.126;2023-04-08T07:35:59;49.55;;;24.70;;
33954;SDS011;20233;50.804;7.126;2023-04-08T07:38:25;55.47;;;26.33;;
33954;SDS011;20233;50.804;7.126;2023-04-08T07:40:51;48.78;;;23.95;;
33954;SDS011;20233;50.804;7.126;2023-04-08T07:43:17;48.67;;;23.13;;
33954;SDS011;20233;50.804;7.126;2023-04-08T07:45:43;59.53;;;26.90;;
33954;SDS011;20233;50.804;7.126;2023-04-08T07:48:08;55.28;;;27.55;;
33954;SDS011;20233;50.804;7.126;2023-04-08T07:50:35;51.92;;;26.90;;
33954;SDS011;20233;50.804;7.126;2023-04-08T07:53:01;54.08;;;26.70;;
33954;SDS011;20233;50.804;7.126;2023-04-08T07:55:27;51.47;;;27.67;;
33954;SDS011;20233;50.804;7.126;2023-04-08T07:57:57;55.47;;;27.48;;
33954;SDS011;20233;50.804;7.126;2023-04-08T08:00:23;50.55;;;25.75;;
33954;SDS011;20233;50.804;7.126;2023-04-08T08:02:48;42.90;;;24.48;;
33954;SDS011;20233;50.804;7.126;2023-04-08T08:05:14;47.47;;;27.63;;
33954;SDS011;20233;50.804;7.126;2023-04-08T08:07:40;50.17;;;25.60;;
33954;SDS011;20233;50.804;7.126;2023-04-08T08:10:06;46.95;;;26.02;;
33954;SDS011;20233;50.804;7.126;2023-04-08T08:12:32;45.75;;;26.17;;
33954;SDS011;20233;50.804;7.126;2023-04-08T08:14:57;49.45;;;27.70;;
33954;SDS011;20233;50.804;7.126;2023-04-08T08:17:23;52.10;;;27.10;;
33954;SDS011;20233;50.804;7.126;2023-04-08T08:19:50;49.00;;;25.98;;
33954;SDS011;20233;50.804;7.126;2023-04-08T08:22:15;47.10;;;24.42;;
33954;SDS011;20233;50.804;7.126;2023-04-08T08:24:41;45.38;;;26.60;;
33954;SDS011;20233;50.804;7.126;2023-04-08T08:27:10;43.65;;;23.75;;
33954;SDS011;20233;50.804;7.126;2023-04-08T08:29:35;41.95;;;24.08;;
33954;SDS011;20233;50.804;7.126;2023-04-08T08:32:01;45.15;;;25.00;;
33954;SDS011;20233;50.804;7.126;2023-04-08T08:34:29;41.65;;;22.20;;
33954;SDS011;20233;50.804;7.126;2023-04-08T08:36:55;37.88;;;22.48;;
33954;SDS011;20233;50.804;7.126;2023-04-08T08:39:21;36.33;;;22.05;;
33954;SDS011;20233;50.804;7.126;2023-04-08T08:41:46;42.53;;;22.05;;
33954;SDS011;20233;50.804;7.126;2023-04-08T08:44:12;37.38;;;20.92;;
33954;SDS011;20233;50.804;7.126;2023-04-08T08:46:45;43.30;;;23.75;;
33954;SDS011;20233;50.804;7.126;2023-04-08T08:49:12;39.42;;;21.13;;
33954;SDS011;20233;50.804;7.126;2023-04-08T08:51:39;40.65;;;23.58;;
33954;SDS011;20233;50.804;7.126;2023-04-08T08:54:05;45.08;;;23.55;;
33954;SDS011;20233;50.804;7.126;2023-04-08T08:56:32;44.17;;;23.88;;
33954;SDS011;20233;50.804;7.126;2023-04-08T08:58:58;40.75;;;22.33;;
33954;SDS011;20233;50.804;7.126;2023-04-08T09:01:34;42.25;;;23.60;;
33954;SDS011;20233;50.804;7.126;2023-04-08T09:06:36;41.38;;;25.30;;
33954;SDS011;20233;50.804;7.126;2023-04-08T09:09:03;45.70;;;24.90;;
33954;SDS011;20233;50.804;7.126;2023-04-08T09:11:35;41.30;;;24.60;;
33954;SDS011;20233;50.804;7.126;2023-04-08T09:14:15;42.03;;;23.33;;
33954;SDS011;20233;50.804;7.126;2023-04-08T09:16:45;42.97;;;23.98;;
33954;SDS011;20233;50.804;7.126;2023-04-08T09:19:11;43.03;;;23.77;;
33954;SDS011;20233;50.804;7.126;2023-04-08T09:21:37;47.38;;;25.92;;
33954;SDS011;20233;50.804;7.126;2023-04-08T09:24:04;42.22;;;24.35;;
33954;SDS011;20233;50.804;7.126;2023-04-08T09:26:32;44.65;;;25.10;;
33954;SDS011;20233;50.804;7.126;2023-04-08T09:31:34;43.63;;;25.33;;
33954;SDS011;20233;50.804;7.126;2023-04-08T09:34:15;37.88;;;21.65;;
33954;SDS011;20233;50.804;7.126;2023-04-08T09:36:43;40.70;;;21.60;;
33954;SDS011;20233;50.804;7.126;2023-04-08T09:39:09;40.22;;;20.63;;
33954;SDS011;20233;50.804;7.126;2023-04-08T09:41:36;42.28;;;22.90;;
33954;SDS011;20233;50.804;7.126;2023-04-08T09:44:03;38.00;;;22.00;;
33954;SDS011;20233;50.804;7.126;2023-04-08T09:49:20;39.05;;;20.23;;
33954;SDS011;20233;50.804;7.126;2023-04-08T09:52:12;43.60;;;22.15;;
33954;SDS011;20233;50.804;7.126;2023-04-08T09:54:55;44.60;;;24.05;;
33954;SDS011;20233;50.804;7.126;2023-04-08T09:57:30;42.85;;;23.85;;
33954;SDS011;20233;50.804;7.126;2023-04-08T10:05:29;40.85;;;22.52;;
33954;SDS011;20233;50.804;7.126;2023-04-08T10:07:56;37.40;;;21.27;;
33954;SDS011;20233;50.804;7.126;2023-04-08T10:10:23;34.92;;;19.38;;
33954;SDS011;20233;50.804;7.126;2023-04-08T10:12:50;38.03;;;21.27;;
33954;SDS011;20233;50.804;7.126;2023-04-08T10:17:52;38.20;;;21.58;;
33954;SDS011;20233;50.804;7.126;2023-04-08T10:23:13;38.67;;;21.10;;
33954;SDS011;20233;50.804;7.126;2023-04-08T10:25:40;43.88;;;23.13;;
33954;SDS011;20233;50.804;7.126;2023-04-08T10:30:48;44.85;;;21.70;;
33954;SDS011;20233;50.804;7.126;2023-04-08T10:33:22;44.97;;;23.20;;
33954;SDS011;20233;50.804;7.126;2023-04-08T10:35:58;51.25;;;25.02;;
33954;SDS011;20233;50.804;7.126;2023-04-08T10:38:39;49.45;;;25.45;;
33954;SDS011;20233;50.804;7.126;2023-04-08T10:41:09;49.78;;;24.42;;
33954;SDS011;20233;50.804;7.126;2023-04-08T10:43:35;50.72;;;25.85;;
33954;SDS011;20233;50.804;7.126;2023-04-08T10:46:03;51.38;;;25.15;;
33954;SDS011;20233;50.804;7.126;2023-04-08T10:48:28;53.20;;;26.88;;
33954;SDS011;20233;50.804;7.126;2023-04-08T10:50:55;52.70;;;26.33;;
33954;SDS011;20233;50.804;7.126;2023-04-08T10:53:31;53.15;;;25.70;;
33954;SDS011;20233;50.804;7.126;2023-04-08T10:58:51;50.47;;;25.57;;
33954;SDS011;20233;50.804;7.126;2023-04-08T11:01:20;50.72;;;25.30;;
33954;SDS011;20233;50.804;7.126;2023-04-08T11:03:46;48.17;;;23.63;;
33954;SDS011;20233;50.804;7.126;2023-04-08T11:06:12;47.72;;;24.02;;
33954;SDS011;20233;50.804;7.126;2023-04-08T11:08:39;53.28;;;24.85;;
33954;SDS011;20233;50.804;7.126;2023-04-08T11:11:05;52.42;;;25.27;;
33954;SDS011;20233;50.804;7.126;2023-04-08T11:13:40;54.72;;;25.13;;
33954;SDS011;20233;50.804;7.126;2023-04-08T11:16:09;59.80;;;26.52;;
33954;SDS011;20233;50.804;7.126;2023-04-08T11:18:38;57.05;;;27.10;;
33954;SDS011;20233;50.804;7.126;2023-04-08T11:21:11;61.45;;;28.67;;
33954;SDS011;20233;50.804;7.126;2023-04-08T11:23:37;54.53;;;26.50;;
33954;SDS011;20233;50.804;7.126;2023-04-08T11:26:03;54.33;;;27.10;;
33954;SDS011;20233;50.804;7.126;2023-04-08T11:28:29;58.13;;;27.17;;
33954;SDS011;20233;50.804;7.126;2023-04-08T11:30:55;50.42;;;24.55;;
33954;SDS011;20233;50.804;7.126;2023-04-08T11:33:23;53.83;;;25.77;;
33954;SDS011;20233;50.804;7.126;2023-04-08T11:35:50;48.88;;;23.95;;
33954;SDS011;20233;50.804;7.126;2023-04-08T11:38:16;50.35;;;25.45;;
33954;SDS011;20233;50.804;7.126;2023-04-08T11:40:55;53.00;;;26.42;;
33954;SDS011;20233;50.804;7.126;2023-04-08T11:43:25;53.47;;;26.95;;
33954;SDS011;20233;50.804;7.126;2023-04-08T11:45:51;56.88;;;26.42;;
33954;SDS011;20233;50.804;7.126;2023-04-08T11:48:17;44.38;;;22.77;;
33954;SDS011;20233;50.804;7.126;2023-04-08T11:50:43;45.10;;;23.10;;
33954;SDS011;20233;50.804;7.126;2023-04-08T11:53:18;43.38;;;22.55;;
33954;SDS011;20233;50.804;7.126;2023-04-08T11:55:45;42.72;;;22.55;;
33954;SDS011;20233;50.804;7.126;2023-04-08T11:58:12;44.90;;;23.00;;
33954;SDS011;20233;50.804;7.126;2023-04-08T12:00:38;39.65;;;20.35;;
33954;SDS011;20233;50.804;7.126;2023-04-08T12:03:03;39.38;;;22.15;;
33954;SDS011;20233;50.804;7.126;2023-04-08T12:05:30;42.13;;;21.90;;
33954;SDS011;20233;50.804;7.126;2023-04-08T12:07:55;46.72;;;23.98;;
33954;SDS011;20233;50.804;7.126;2023-04-08T12:10:21;33.33;;;17.02;;
33954;SDS011;20233;50.804;7.126;2023-04-08T12:12:49;31.15;;;16.58;;
33954;SDS011;20233;50.804;7.126;2023-04-08T12:15:15;28.13;;;16.52;;
33954;SDS011;20233;50.804;7.126;2023-04-08T12:17:41;33.85;;;17.95;;
33954;SDS011;20233;50.804;7.126;2023-04-08T12:20:09;31.73;;;16.42;;
33954;SDS011;20233;50.804;7.126;2023-04-08T12:22:36;29.15;;;16.40;;
33954;SDS011;20233;50.804;7.126;2023-04-08T12:25:01;28.80;;;15.55;;
33954;SDS011;20233;50.804;7.126;2023-04-08T12:27:28;29.30;;;16.17;;
33954;SDS011;20233;50.804;7.126;2023-04-08T12:29:54;30.73;;;16.23;;
33954;SDS011;20233;50.804;7.126;2023-04-08T12:32:20;28.73;;;16.77;;
33954;SDS011;20233;50.804;7.126;2023-04-08T12:34:46;32.75;;;18.48;;
33954;SDS011;20233;50.804;7.126;2023-04-08T12:37:12;31.90;;;18.17;;
33954;SDS011;20233;50.804;7.126;2023-04-08T12:39:37;31.13;;;18.60;;
33954;SDS011;20233;50.804;7.126;2023-04-08T12:42:03;27.70;;;17.48;;
33954;SDS011;20233;50.804;7.126;2023-04-08T12:44:29;33.92;;;19.85;;
33954;SDS011;20233;50.804;7.126;2023-04-08T12:46:54;35.25;;;19.67;;
33954;SDS011;20233;50.804;7.126;2023-04-08T12:49:22;33.83;;;20.65;;
33954;SDS011;20233;50.804;7.126;2023-04-08T12:51:48;33.85;;;19.50;;
33954;SDS011;20233;50.804;7.126;2023-04-08T12:54:14;31.80;;;18.30;;
33954;SDS011;20233;50.804;7.126;2023-04-08T12:56:40;29.88;;;17.70;;
33954;SDS011;20233;50.804;7.126;2023-04-08T12:59:07;29.83;;;16.88;;
33954;SDS011;20233;50.804;7.126;2023-04-08T13:01:33;27.15;;;16.63;;
33954;SDS011;20233;50.804;7.126;2023-04-08T13:03:58;27.85;;;16.33;;
33954;SDS011;20233;50.804;7.126;2023-04-08T13:06:24;32.35;;;17.55;;
33954;SDS011;20233;50.804;7.126;2023-04-08T13:08:50;27.65;;;16.13;;
33954;SDS011;20233;50.804;7.126;2023-04-08T13:11:16;15.80;;;9.02;;
33954;SDS011;20233;50.804;7.126;2023-04-08T13:13:42;16.33;;;9.48;;
33954;SDS011;20233;50.804;7.126;2023-04-08T13:16:07;20.83;;;11.38;;
33954;SDS011;20233;50.804;7.126;2023-04-08T13:18:33;17.77;;;9.50;;
33954;SDS011;20233;50.804;7.126;2023-04-08T13:21:00;17.88;;;9.45;;
33954;SDS011;20233;50.804;7.126;2023-04-08T13:23:26;16.52;;;9.80;;
33954;SDS011;20233;50.804;7.126;2023-04-08T13:25:51;17.65;;;10.30;;
33954;SDS011;20233;50.804;7.126;2023-04-08T13:28:17;21.70;;;10.90;;
33954;SDS011;20233;50.804;7.126;2023-04-08T13:30:42;16.70;;;9.63;;
33954;SDS011;20233;50.804;7.126;2023-04-08T13:33:08;19.77;;;11.38;;
33954;SDS011;20233;50.804;7.126;2023-04-08T13:35:33;18.27;;;10.82;;
33954;SDS011;20233;50.804;7.126;2023-04-08T13:38:01;17.50;;;10.75;;
33954;SDS011;20233;50.804;7.126;2023-04-08T13:40:26;20.63;;;10.88;;
33954;SDS011;20233;50.804;7.126;2023-04-08T13:42:52;18.35;;;10.70;;
33954;SDS011;20233;50.804;7.126;2023-04-08T13:45:18;24.08;;;12.48;;
33954;SDS011;20233;50.804;7.126;2023-04-08T13:47:44;18.58;;;11.10;;
33954;SDS011;20233;50.804;7.126;2023-04-08T13:50:10;21.35;;;12.15;;
33954;SDS011;20233;50.804;7.126;2023-04-08T13:52:35;18.77;;;12.68;;
33954;SDS011;20233;50.804;7.126;2023-04-08T13:55:01;18.98;;;10.63;;
33954;SDS011;20233;50.804;7.126;2023-04-08T13:57:27;17.00;;;10.13;;
33954;SDS011;20233;50.804;7.126;2023-04-08T13:59:52;21.65;;;10.38;;
33954;SDS011;20233;50.804;7.126;2023-04-08T14:02:18;20.52;;;11.55;;
33954;SDS011;20233;50.804;7.126;2023-04-08T14:04:43;22.40;;;10.80;;
33954;SDS011;20233;50.804;7.126;2023-04-08T14:07:10;17.48;;;10.63;;
33954;SDS011;20233;50.804;7.126;2023-04-08T14:09:36;17.50;;;9.82;;
33954;SDS011;20233;50.804;7.126;2023-04-08T14:12:02;21.45;;;10.95;;
33954;SDS011;20233;50.804;7.126;2023-04-08T14:14:27;22.80;;;11.95;;
33954;SDS011;20233;50.804;7.126;2023-04-08T14:16:53;21.15;;;11.88;;
33954;SDS011;20233;50.804;7.126;2023-04-08T14:19:18;21.58;;;11.63;;
33954;SDS011;20233;50.804;7.126;2023-04-08T14:21:44;20.08;;;11.18;;
33954;SDS011;20233;50.804;7.126;2023-04-08T14:24:10;22.05;;;12.07;;
33954;SDS011;20233;50.804;7.126;2023-04-08T14:26:36;22.48;;;12.45;;
33954;SDS011;20233;50.804;7.126;2023-04-08T14:29:02;21.30;;;12.98;;
33954;SDS011;20233;50.804;7.126;2023-04-08T14:31:28;21.58;;;12.57;;
33954;SDS011;20233;50.804;7.126;2023-04-08T14:33:55;21.38;;;12.75;;
33954;SDS011;20233;50.804;7.126;2023-04-08T14:36:20;21.52;;;12.20;;
33954;SDS011;20233;50.804;7.126;2023-04-08T14:38:48;23.45;;;12.80;;
33954;SDS011;20233;50.804;7.126;2023-04-08T14:41:14;21.40;;;12.85;;
33954;SDS011;20233;50.804;7.126;2023-04-08T14:43:40;19.92;;;12.43;;
33954;SDS011;20233;50.804;7.126;2023-04-08T14:46:05;20.45;;;11.98;;
33954;SDS011;20233;50.804;7.126;2023-04-08T14:48:31;21.38;;;11.80;;
33954;SDS011;20233;50.804;7.126;2023-04-08T14:50:57;23.55;;;13.02;;